Time;durP1;ratioP1;P1;durP2;ratioP2;P2;SDS_P1;SDS_P2;PMS_P1;PMS_P2;Temp;Humidity;BMP_temperature;BMP_pressure;BME280_temperature;BME280_humidity;BME280_pressure;Samples;Min_cycle;Max_cycle;Signal;HPM_P1;HPM_P2
2021/12/05 00:22:54;;;;;;;;;;;;;;;24.58;58.24;96287.05;595753;236;67329;-60
2021/12/05 00:25:27;;;;;;;;;;;;;;;24.58;58.89;96295.11;595715;238;63030;-60
2021/12/05 00:28:12;;;;;;;;;;;;;;;24.55;58.80;96290.36;599045;234;64841;-60
2021/12/05 00:36:24;;;;;;;;;;;;;;;24.56;57.36;96283.09;605269;234;67142;-60
2021/12/05 00:41:22;;;;;;;;;;;;;;;24.54;57.20;96285.28;605173;234;65359;-60
2021/12/05 00:59:29;;;;;;;;;;;;;;;24.50;57.33;96295.05;591496;234;67430;-64
2021/12/05 01:04:37;;;;;;;;;;;;;;;24.49;57.29;96291.58;605293;234;62874;-62
2021/12/05 01:09:50;;;;;;;;;;;;;;;24.48;58.30;96287.32;605292;232;67409;-64
2021/12/05 01:15:04;;;;;;;;;;;;;;;24.47;57.67;96284.94;605354;234;66639;-63
2021/12/05 01:17:38;;;;;;;;;;;;;;;24.45;57.66;96287.16;605185;234;46203;-62
2021/12/05 01:20:04;;;;;;;;;;;;;;;24.45;57.36;96290.63;605042;234;65472;-62
2021/12/05 01:22:34;;;;;;;;;;;;;;;24.45;57.52;96287.95;605241;234;67265;-62
2021/12/05 01:27:54;;;;;;;;;;;;;;;24.44;57.51;96280.97;605340;234;65804;-64
2021/12/05 01:30:16;;;;;;;;;;;;;;;24.44;58.04;96282.88;604461;234;65627;-62
2021/12/05 01:35:25;;;;;;;;;;;;;;;24.41;57.62;96273.52;605231;234;64566;-63
2021/12/05 01:51:44;;;;;;;;;;;;;;;24.38;59.32;96260.70;605259;234;63699;-62
2021/12/05 01:57:01;;;;;;;;;;;;;;;24.36;57.81;96266.41;611273;232;64639;-62
2021/12/05 02:43:15;;;;;;;;;;;;;;;24.19;60.74;96262.84;611235;232;64781;-64
2021/12/05 02:45:38;;;;;;;;;;;;;;;24.19;60.01;96252.11;610955;232;65120;-64
2021/12/05 02:48:08;;;;;;;;;;;;;;;24.15;63.68;96258.10;611184;232;44924;-64
2021/12/05 02:50:36;;;;;;;;;;;;;;;24.13;61.65;96260.30;611205;232;67217;-64
2021/12/05 02:53:17;;;;;;;;;;;;;;;24.15;62.51;96260.79;609602;232;66996;-61
2021/12/05 02:55:40;;;;;;;;;;;;;;;24.15;63.31;96263.47;608232;233;65247;-61
2021/12/05 03:01:08;;;;;;;;;;;;;;;24.11;64.14;96262.49;608676;233;66956;-60
2021/12/05 03:03:26;;;;;;;;;;;;;;;24.11;66.55;96250.97;608032;233;62889;-60
2021/12/05 03:05:58;;;;;;;;;;;;;;;24.10;67.12;96252.08;608651;233;67296;-64
2021/12/05 03:08:23;;;;;;;;;;;;;;;24.08;64.99;96260.43;608611;233;64567;-63
2021/12/05 03:10:52;;;;;;;;;;;;;;;24.10;62.12;96255.55;608623;233;65132;-63
2021/12/05 03:13:20;;;;;;;;;;;;;;;24.10;66.36;96249.40;608719;233;65060;-63
2021/12/05 03:15:47;;;;;;;;;;;;;;;24.07;65.41;96261.55;608702;233;67117;-63
2021/12/05 03:18:15;;;;;;;;;;;;;;;24.07;66.47;96266.13;608690;233;65122;-63
2021/12/05 03:20:43;;;;;;;;;;;;;;;24.05;65.45;96269.10;608700;233;64998;-64
2021/12/05 03:23:11;;;;;;;;;;;;;;;24.05;65.38;96271.78;608704;233;66756;-63
2021/12/05 03:25:39;;;;;;;;;;;;;;;24.04;67.21;96270.22;608695;233;62627;-63
2021/12/05 03:28:08;;;;;;;;;;;;;;;24.04;65.76;96274.80;608685;233;67399;-63
2021/12/05 03:30:35;;;;;;;;;;;;;;;24.02;66.14;96280.45;608675;233;65984;-63
2021/12/05 03:33:04;;;;;;;;;;;;;;;24.03;60.53;96286.61;608695;233;64489;-63
2021/12/05 03:35:32;;;;;;;;;;;;;;;24.05;68.31;96289.78;608701;233;67448;-63
2021/12/05 03:38:01;;;;;;;;;;;;;;;24.03;66.38;96283.93;608655;233;45552;-63
2021/12/05 03:40:30;;;;;;;;;;;;;;;24.04;61.58;96285.53;608696;233;62587;-63
2021/12/05 03:43:00;;;;;;;;;;;;;;;24.04;66.84;96293.59;608700;233;64518;-63
2021/12/05 03:45:29;;;;;;;;;;;;;;;24.01;63.21;96294.98;608680;233;65064;-63
2021/12/05 03:47:57;;;;;;;;;;;;;;;23.99;67.30;96281.08;608600;233;62749;-63
2021/12/05 03:50:26;;;;;;;;;;;;;;;23.97;66.50;96272.53;608649;233;67010;-63
2021/12/05 03:52:54;;;;;;;;;;;;;;;23.98;67.96;96279.51;608665;233;64935;-63
2021/12/05 03:55:22;;;;;;;;;;;;;;;23.96;63.98;96295.11;608679;233;65613;-63
2021/12/05 03:57:50;;;;;;;;;;;;;;;23.98;69.13;96289.42;608698;233;67453;-63
2021/12/05 04:00:20;;;;;;;;;;;;;;;23.96;68.75;96292.44;608704;233;67413;-63
2021/12/05 04:02:48;;;;;;;;;;;;;;;23.95;67.97;96290.83;608604;233;63390;-63
2021/12/05 04:05:18;;;;;;;;;;;;;;;23.95;67.83;96293.52;608539;233;48255;-63
2021/12/05 04:07:47;;;;;;;;;;;;;;;23.95;67.13;96290.83;608706;233;67783;-64
2021/12/05 04:10:15;;;;;;;;;;;;;;;23.94;66.89;96286.57;608705;233;62737;-63
2021/12/05 04:12:43;;;;;;;;;;;;;;;23.93;65.87;96298.41;608701;233;67770;-64
2021/12/05 04:15:11;;;;;;;;;;;;;;;23.93;67.75;96287.69;608698;233;64525;-63
2021/12/05 04:17:41;;;;;;;;;;;;;;;23.92;69.10;96286.08;608674;233;64929;-63
2021/12/05 04:20:10;;;;;;;;;;;;;;;23.91;64.70;96289.87;608664;233;67397;-63
2021/12/05 04:22:38;;;;;;;;;;;;;;;23.91;67.60;96281.83;608686;233;64980;-63
2021/12/05 04:25:11;;;;;;;;;;;;;;;23.91;67.68;96276.45;608736;233;43397;-64
2021/12/05 04:27:39;;;;;;;;;;;;;;;23.91;63.89;96279.14;608707;233;65823;-63
2021/12/05 04:30:09;;;;;;;;;;;;;;;23.89;62.83;96273.28;608655;233;67387;-63
2021/12/05 04:32:35;;;;;;;;;;;;;;;;;;608695;233;65054;-62
2021/12/05 04:35:03;;;;;;;;;;;;;;;23.91;61.32;96279.92;608743;233;65968;-63
2021/12/05 04:37:31;;;;;;;;;;;;;;;23.90;68.29;96272.20;608715;233;67596;-63
2021/12/05 04:39:59;;;;;;;;;;;;;;;23.88;66.16;96274.39;608699;233;65141;-60
2021/12/05 04:42:27;;;;;;;;;;;;;;;23.86;69.47;96281.95;608687;233;64602;-60
2021/12/05 04:44:54;;;;;;;;;;;;;;;23.86;66.54;96281.95;608664;233;67553;-60
2021/12/05 04:47:22;;;;;;;;;;;;;;;23.85;69.19;96288.42;608678;233;65059;-60
2021/12/05 04:49:50;;;;;;;;;;;;;;;23.84;67.95;96281.45;608646;233;64616;-61
2021/12/05 04:52:17;;;;;;;;;;;;;;;23.85;68.30;96285.74;608654;233;67113;-60
2021/12/05 04:54:45;;;;;;;;;;;;;;;23.85;67.82;96275.01;608687;233;65803;-60
2021/12/05 04:57:13;;;;;;;;;;;;;;;23.83;67.42;96277.98;608629;233;67192;-60
2021/12/05 04:59:46;;;;;;;;;;;;;;;23.82;69.39;96279.09;608702;233;64646;-60
2021/12/05 05:02:09;;;;;;;;;;;;;;;23.82;66.77;96284.46;608501;233;63165;-61
2021/12/05 05:04:42;;;;;;;;;;;;;;;23.81;66.95;96280.17;608681;233;66889;-61
2021/12/05 05:07:11;;;;;;;;;;;;;;;23.80;68.67;96278.60;608464;233;67068;-61
2021/12/05 05:09:37;;;;;;;;;;;;;;;23.80;67.62;96273.23;608487;233;62989;-61
2021/12/05 05:12:05;;;;;;;;;;;;;;;23.80;67.19;96277.81;608695;233;65151;-61
2021/12/05 05:14:32;;;;;;;;;;;;;;;23.79;69.21;96270.84;608689;233;67125;-61
2021/12/05 05:16:59;;;;;;;;;;;;;;;23.76;63.92;96280.30;608669;233;65087;-61
2021/12/05 05:19:34;;;;;;;;;;;;;;;23.78;66.07;96285.38;608682;233;68003;-61
2021/12/05 05:22:07;;;;;;;;;;;;;;;23.76;66.51;96280.30;608419;233;65082;-61
2021/12/05 05:30:46;;;;;;;;;;;;;;;23.76;69.08;96276.83;608707;233;64714;-62
2021/12/05 05:43:34;;;;;;;;;;;;;;;23.72;68.35;96282.02;608756;233;64601;-60
2021/12/05 05:48:48;;;;;;;;;;;;;;;23.72;66.01;96286.60;608746;233;65263;-60
2021/12/05 05:51:12;;;;;;;;;;;;;;;23.70;67.70;96284.97;608442;233;64769;-61
2021/12/05 05:53:39;;;;;;;;;;;;;;;23.70;64.76;96289.55;605686;233;64851;-64
2021/12/05 05:56:14;;;;;;;;;;;;;;;23.69;66.36;96286.08;605272;234;65140;-64
2021/12/05 05:58:53;;;;;;;;;;;;;;;23.70;65.30;96281.50;605074;234;67296;-65
2021/12/05 06:01:21;;;;;;;;;;;;;;;23.70;63.24;96284.97;605211;232;67200;-64
2021/12/05 06:03:48;;;;;;;;;;;;;;;23.69;69.41;96274.56;605202;234;65140;-63
2021/12/05 06:06:16;;;;;;;;;;;;;;;23.67;65.76;96280.22;605274;234;64986;-63
2021/12/05 06:08:45;;;;;;;;;;;;;;;23.69;65.94;96287.97;605249;234;67046;-63
2021/12/05 06:11:14;;;;;;;;;;;;;;;23.66;63.82;96294.74;605273;234;63055;-63
2021/12/05 06:13:42;;;;;;;;;;;;;;;23.67;64.79;96285.58;605172;234;64788;-63
2021/12/05 06:16:11;;;;;;;;;;;;;;;23.67;66.10;96285.58;605242;234;67192;-63
2021/12/05 06:18:39;;;;;;;;;;;;;;;23.66;63.61;96291.27;605275;234;64935;-63
2021/12/05 06:21:07;;;;;;;;;;;;;;;23.66;65.72;96286.70;604912;234;66943;-63
2021/12/05 06:23:35;;;;;;;;;;;;;;;23.66;66.46;96289.37;605078;234;64787;-65
2021/12/05 06:26:03;;;;;;;;;;;;;;;23.66;64.62;96284.01;605248;234;64926;-64
2021/12/05 06:28:38;;;;;;;;;;;;;;;23.66;65.65;96286.70;605266;234;67453;-65
2021/12/05 06:31:26;;;;;;;;;;;;;;;23.65;65.28;96293.16;605101;234;65828;-64
2021/12/05 06:39:29;;;;;;;;;;;;;;;23.64;65.34;96296.92;605273;234;66901;-64
2021/12/05 06:47:26;;;;;;;;;;;;;;;23.63;65.75;96297.25;605288;234;66882;-63
2021/12/05 06:49:55;;;;;;;;;;;;;;;23.63;65.78;96298.03;605249;234;62354;-62
2021/12/05 06:52:23;;;;;;;;;;;;;;;23.64;66.26;96301.51;606433;233;66997;-63
2021/12/05 06:54:51;;;;;;;;;;;;;;;23.62;65.13;96307.16;608742;233;66578;-62
2021/12/05 06:57:18;;;;;;;;;;;;;;;23.60;64.91;96297.84;608744;233;65077;-62
2021/12/05 06:59:48;;;;;;;;;;;;;;;23.60;64.81;96312.06;608714;233;66970;-65
2021/12/05 07:02:17;;;;;;;;;;;;;;;23.60;64.21;96314.74;608712;233;66784;-64
2021/12/05 07:04:58;;;;;;;;;;;;;;;23.60;64.54;96313.92;608728;233;62632;-64
2021/12/05 07:07:23;;;;;;;;;;;;;;;23.59;66.55;96299.73;608302;233;66727;-64
2021/12/05 07:09:49;;;;;;;;;;;;;;;23.58;64.15;96297.37;608672;233;64386;-64
2021/12/05 07:13:14;;;;;;;;;;;;;;;23.59;65.79;96305.09;608718;233;65067;-60
2021/12/05 07:15:16;;;;;;;;;;;;;;;23.58;66.15;96308.88;607736;233;66808;-61
2021/12/05 07:23:17;;;;;;;;;;;;;;;23.57;64.78;96285.03;608704;233;67015;-60
2021/12/05 07:25:48;;;;;;;;;;;;;;;23.56;66.15;96286.94;608390;233;66830;-60
2021/12/05 07:42:08;;;;;;;;;;;;;;;23.51;64.35;96268.28;608695;233;64868;-65
2021/12/05 07:44:33;;;;;;;;;;;;;;;23.51;66.54;96268.28;608494;233;65290;-63
2021/12/05 07:47:01;;;;;;;;;;;;;;;23.51;66.87;96278.22;608647;233;67219;-62
2021/12/05 07:49:29;;;;;;;;;;;;;;;23.51;66.42;96283.58;608640;233;66832;-63
2021/12/05 07:51:57;;;;;;;;;;;;;;;23.49;69.35;96290.05;608696;233;64923;-62
2021/12/05 07:54:41;;;;;;;;;;;;;;;23.49;66.32;96294.63;608643;233;66898;-63
2021/12/05 07:57:13;;;;;;;;;;;;;;;23.48;68.14;96295.70;608180;233;66669;-63
2021/12/05 08:16:07;;;;;;;;;;;;;;;23.46;68.27;96282.62;608678;233;65202;-64
2021/12/05 08:18:32;;;;;;;;;;;;;;;23.45;66.87;96272.19;608502;233;66734;-63
2021/12/05 08:21:00;;;;;;;;;;;;;;;23.44;65.54;96257.20;608666;233;66767;-63
2021/12/05 08:23:28;;;;;;;;;;;;;;;23.43;66.46;96253.70;608654;233;62778;-63
2021/12/05 08:26:09;;;;;;;;;;;;;;;23.43;66.51;96247.55;608712;233;64701;-64
2021/12/05 08:28:55;;;;;;;;;;;;;;;23.43;68.85;96242.98;608169;233;64140;-62
2021/12/05 08:36:39;;;;;;;;;;;;;;;23.41;66.36;96263.97;608624;233;67265;-63
2021/12/05 09:28:35;;;;;;;;;;;;;;;23.31;68.41;96213.26;605234;234;65117;-64
2021/12/05 09:30:47;;;;;;;;;;;;;;;23.30;65.16;96216.23;604147;234;67851;-63
2021/12/05 09:53:26;;;;;;;;;;;;;;;;;;;;;
2021/12/05 10:03:11;;;;;;;;;;;;;;;23.24;65.32;96184.22;608716;233;64536;-61
2021/12/05 10:08:45;;;;;;;;;;;;;;;23.22;66.34;96174.89;608712;233;63096;-61
2021/12/05 10:11:25;;;;;;;;;;;;;;;23.22;67.12;96169.53;608390;233;64619;-61
2021/12/05 10:17:04;;;;;;;;;;;;;;;23.21;66.92;96170.61;608740;233;62659;-61
2021/12/05 10:36:00;;;;;;;;;;;;;;;23.18;69.70;96144.42;608705;233;66800;-61
2021/12/05 10:38:18;;;;;;;;;;;;;;;23.19;69.08;96148.67;608131;233;64773;-61
2021/12/05 10:40:54;;;;;;;;;;;;;;;23.17;65.26;96143.63;608478;233;65086;-61
2021/12/05 10:43:18;;;;;;;;;;;;;;;23.16;67.35;96141.24;608499;233;64693;-61
2021/12/05 10:45:49;;;;;;;;;;;;;;;23.17;70.25;96126.77;608724;233;66629;-61
2021/12/05 10:48:24;;;;;;;;;;;;;;;23.15;67.13;96127.06;608680;233;63167;-61
2021/12/05 10:50:53;;;;;;;;;;;;;;;23.18;67.41;96131.80;608646;233;66960;-61
2021/12/05 10:53:26;;;;;;;;;;;;;;;23.16;69.11;96120.62;608447;233;66837;-61
2021/12/05 10:55:54;;;;;;;;;;;;;;;23.16;68.85;96117.94;608701;233;65039;-61
2021/12/05 10:58:28;;;;;;;;;;;;;;;23.14;68.98;96106.73;608722;233;64607;-61
2021/12/05 11:00:52;;;;;;;;;;;;;;;23.12;65.17;96098.20;608448;233;64800;-61
2021/12/05 11:03:22;;;;;;;;;;;;;;;23.14;66.36;96101.37;608261;233;62949;-61
2021/12/05 11:05:50;;;;;;;;;;;;;;;23.14;65.36;96084.50;608622;233;64791;-61
2021/12/05 11:08:28;;;;;;;;;;;;;;;23.14;66.07;96084.50;608684;233;64485;-61
2021/12/05 11:11:12;;;;;;;;;;;;;;;23.14;64.09;96079.14;608576;233;64925;-61
2021/12/05 11:13:41;;;;;;;;;;;;;;;23.14;65.70;96089.86;608661;233;67213;-61
2021/12/05 11:16:10;;;;;;;;;;;;;;;23.12;67.32;96084.80;608645;233;67337;-61
2021/12/05 11:18:42;;;;;;;;;;;;;;;23.12;66.28;96078.65;607708;233;65036;-61
2021/12/05 11:21:31;;;;;;;;;;;;;;;23.12;66.03;96079.44;608649;233;64917;-61
2021/12/05 11:24:07;;;;;;;;;;;;;;;23.12;65.80;96062.56;608555;233;65028;-61
2021/12/05 11:26:38;;;;;;;;;;;;;;;23.11;65.58;96061.78;608670;233;47401;-61
2021/12/05 11:29:05;;;;;;;;;;;;;;;23.11;69.68;96061.78;608637;233;68207;-61
2021/12/05 11:31:34;;;;;;;;;;;;;;;23.11;66.16;96052.92;608694;233;67052;-61
2021/12/05 11:34:02;;;;;;;;;;;;;;;23.09;69.92;96053.25;608672;233;62719;-61
2021/12/05 11:36:31;;;;;;;;;;;;;;;23.08;65.91;96054.36;608661;233;66979;-61
2021/12/05 11:38:59;;;;;;;;;;;;;;;23.09;68.63;96047.89;608666;233;67347;-61
2021/12/05 11:41:26;;;;;;;;;;;;;;;23.08;66.16;96050.87;608593;233;64844;-61
2021/12/05 11:43:55;;;;;;;;;;;;;;;23.08;67.85;96053.55;608703;233;67264;-61
2021/12/05 11:46:31;;;;;;;;;;;;;;;23.08;69.67;96053.55;608672;233;67024;-61
2021/12/05 11:49:06;;;;;;;;;;;;;;;23.07;69.49;96036.69;608603;233;64994;-62
2021/12/05 11:51:44;;;;;;;;;;;;;;;23.07;66.97;96030.54;608544;233;67039;-62
2021/12/05 11:54:12;;;;;;;;;;;;;;;23.07;67.98;96028.64;605062;234;65642;-60
2021/12/05 11:56:41;;;;;;;;;;;;;;;23.05;68.82;96030.83;605220;234;64941;-61
2021/12/05 11:59:10;;;;;;;;;;;;;;;23.06;67.76;96040.47;605290;232;65056;-61
2021/12/05 12:01:40;;;;;;;;;;;;;;;23.05;70.33;96038.88;605224;234;66967;-61
2021/12/05 12:04:08;;;;;;;;;;;;;;;23.03;70.58;96028.48;605195;232;64914;-61
2021/12/05 12:06:36;;;;;;;;;;;;;;;23.01;66.22;96036.02;605195;234;67172;-61
2021/12/05 12:09:04;;;;;;;;;;;;;;;23.02;66.08;96023.41;605206;234;66999;-61
2021/12/05 12:11:32;;;;;;;;;;;;;;;23.03;67.79;96011.61;605279;234;62960;-61
2021/12/05 12:14:00;;;;;;;;;;;;;;;23.01;67.29;96008.45;605223;234;67184;-61
2021/12/05 12:16:33;;;;;;;;;;;;;;;23.01;68.86;96008.45;605222;234;64741;-61
2021/12/05 12:18:58;;;;;;;;;;;;;;;23.02;68.15;96010.02;604988;234;64861;-62
2021/12/05 12:21:27;;;;;;;;;;;;;;;23.00;68.38;96004.20;605221;234;67309;-61
2021/12/05 12:23:56;;;;;;;;;;;;;;;22.99;69.58;96008.73;605277;234;66791;-61
2021/12/05 12:26:24;;;;;;;;;;;;;;;22.99;67.47;95997.23;605269;234;62699;-62
2021/12/05 12:28:53;;;;;;;;;;;;;;;22.99;66.12;95994.55;605210;234;65005;-62
2021/12/05 12:31:28;;;;;;;;;;;;;;;22.99;65.80;95991.87;605163;234;67354;-62
2021/12/05 12:33:55;;;;;;;;;;;;;;;23.00;66.76;95996.16;605180;234;62910;-62
2021/12/05 12:36:43;;;;;;;;;;;;;;;23.00;69.57;95990.80;605213;234;67204;-63
2021/12/05 12:39:15;;;;;;;;;;;;;;;22.96;71.01;95987.92;605044;234;67101;-61
2021/12/05 12:41:44;;;;;;;;;;;;;;;22.98;68.10;95990.30;605250;234;64998;-61
2021/12/05 12:44:13;;;;;;;;;;;;;;;22.98;66.46;95990.30;605213;234;64982;-61
2021/12/05 12:46:49;;;;;;;;;;;;;;;22.97;68.29;95996.75;605212;234;64981;-61
2021/12/05 12:49:18;;;;;;;;;;;;;;;22.97;70.38;95994.06;605159;234;65026;-61
2021/12/05 12:51:50;;;;;;;;;;;;;;;22.95;66.65;95993.58;605482;233;66917;-62
2021/12/05 12:54:19;;;;;;;;;;;;;;;22.94;66.18;95987.41;608672;233;67046;-62
2021/12/05 12:57:04;;;;;;;;;;;;;;;22.96;70.00;95987.14;608441;233;65106;-62
2021/12/05 12:59:34;;;;;;;;;;;;;;;22.95;66.27;95989.00;608659;233;67290;-61
2021/12/05 13:12:49;;;;;;;;;;;;;;;22.92;67.08;96007.59;608695;233;64911;-61
2021/12/05 13:15:21;;;;;;;;;;;;;;;22.92;68.86;96012.95;608357;233;65107;-63
2021/12/05 13:17:50;;;;;;;;;;;;;;;22.91;68.66;96016.70;608635;233;67036;-63
2021/12/05 13:20:19;;;;;;;;;;;;;;;22.90;70.90;96009.78;608620;233;65065;-63
2021/12/05 13:23:00;;;;;;;;;;;;;;;22.89;70.68;96008.18;608620;233;67290;-65
2021/12/05 13:25:29;;;;;;;;;;;;;;;22.89;70.33;96021.58;608625;233;66839;-63
2021/12/05 13:27:57;;;;;;;;;;;;;;;22.87;69.42;96013.08;608672;233;62996;-64
2021/12/05 13:30:31;;;;;;;;;;;;;;;22.87;70.54;96021.90;608637;233;67458;-64
2021/12/05 13:33:16;;;;;;;;;;;;;;;22.87;67.27;96018.44;608613;233;64964;-63
2021/12/05 13:35:43;;;;;;;;;;;;;;;22.88;69.37;96022.69;608475;233;62748;-64
2021/12/05 13:38:28;;;;;;;;;;;;;;;22.88;69.58;96022.69;608583;233;64874;-64
2021/12/05 13:40:56;;;;;;;;;;;;;;;22.87;68.94;96021.11;608645;233;66650;-63
2021/12/05 13:43:28;;;;;;;;;;;;;;;22.86;70.63;96027.55;608620;233;65000;-63
2021/12/05 13:45:57;;;;;;;;;;;;;;;22.85;70.30;96023.30;608690;233;67320;-63
2021/12/05 13:48:28;;;;;;;;;;;;;;;22.85;68.79;96024.08;608549;233;67177;-63
2021/12/05 13:50:57;;;;;;;;;;;;;;;22.83;70.03;96032.45;608623;233;65100;-63
2021/12/05 13:53:27;;;;;;;;;;;;;;;22.83;68.95;96042.34;608595;233;67311;-63
2021/12/05 13:56:02;;;;;;;;;;;;;;;22.85;69.10;96036.70;608646;233;67005;-63
2021/12/05 13:58:45;;;;;;;;;;;;;;;22.82;67.13;96035.42;608722;233;63017;-63
2021/12/05 14:01:20;;;;;;;;;;;;;;;22.81;71.61;96034.62;608731;233;64963;-63
2021/12/05 14:03:52;;;;;;;;;;;;;;;22.79;70.66;96033.35;608690;233;64680;-63
2021/12/05 14:06:33;;;;;;;;;;;;;;;22.80;70.54;96042.96;608616;233;64907;-64
2021/12/05 14:09:14;;;;;;;;;;;;;;;22.80;69.03;96035.70;608639;233;64581;-64
2021/12/05 14:11:44;;;;;;;;;;;;;;;22.77;70.77;96040.89;608520;233;64502;-63
2021/12/05 14:14:11;;;;;;;;;;;;;;;22.76;69.63;96023.25;608445;233;62720;-63
2021/12/05 14:16:40;;;;;;;;;;;;;;;22.76;70.45;96031.29;608612;233;64942;-63
2021/12/05 14:19:12;;;;;;;;;;;;;;;22.77;70.08;96022.93;608650;233;66640;-63
2021/12/05 14:21:44;;;;;;;;;;;;;;;22.79;66.77;96030.67;608470;233;62972;-63
2021/12/05 14:24:12;;;;;;;;;;;;;;;22.77;70.11;96027.50;608682;233;66876;-63
2021/12/05 14:26:41;;;;;;;;;;;;;;;22.77;70.71;96022.14;608479;233;44165;-63
2021/12/05 14:29:13;;;;;;;;;;;;;;;22.76;71.58;96020.58;608634;233;65031;-63
2021/12/05 14:31:42;;;;;;;;;;;;;;;22.76;70.10;96025.94;608705;233;67181;-64
2021/12/05 14:34:10;;;;;;;;;;;;;;;22.73;70.67;96038.05;608597;233;66888;-64
2021/12/05 14:36:42;;;;;;;;;;;;;;;22.73;70.90;96048.76;608669;233;65100;-64
2021/12/05 14:39:20;;;;;;;;;;;;;;;22.73;69.90;96038.05;608515;233;67938;-64
2021/12/05 14:41:49;;;;;;;;;;;;;;;22.73;66.77;96035.37;602565;233;70418;-63
2021/12/05 14:44:18;;;;;;;;;;;;;;;22.74;70.75;96044.97;608622;233;62972;-63
2021/12/05 14:46:47;;;;;;;;;;;;;;;22.73;71.20;96058.69;608633;233;67359;-63
2021/12/05 14:49:15;;;;;;;;;;;;;;;22.71;71.71;96060.87;608642;233;67082;-63
2021/12/05 14:51:44;;;;;;;;;;;;;;;22.70;71.07;96070.80;608510;233;65164;-63
2021/12/05 14:54:14;;;;;;;;;;;;;;;22.70;71.32;96070.80;608033;233;67256;-63
2021/12/05 14:56:42;;;;;;;;;;;;;;;22.68;70.89;96078.34;607981;233;66778;-64
2021/12/05 14:59:11;;;;;;;;;;;;;;;22.68;71.25;96078.34;608605;233;65238;-63
2021/12/05 15:01:42;;;;;;;;;;;;;;;22.68;71.12;96085.59;608555;233;67017;-63
2021/12/05 15:04:11;;;;;;;;;;;;;;;22.67;70.68;96082.13;608438;233;44316;-63
2021/12/05 15:06:41;;;;;;;;;;;;;;;22.68;72.29;96089.05;608553;233;62991;-63
2021/12/05 15:09:10;;;;;;;;;;;;;;;22.68;71.22;96097.09;608570;233;64963;-63
2021/12/05 15:11:39;;;;;;;;;;;;;;;22.69;70.12;96092.52;608196;233;64858;-63
2021/12/05 15:14:07;;;;;;;;;;;;;;;22.68;71.42;96099.77;608664;233;64888;-63
2021/12/05 15:16:36;;;;;;;;;;;;;;;22.69;70.88;96100.55;608609;233;64170;-63
2021/12/05 15:19:05;;;;;;;;;;;;;;;22.68;69.73;96104.34;608507;233;44079;-64
2021/12/05 15:21:42;;;;;;;;;;;;;;;22.69;70.66;96106.69;608669;233;44352;-64
2021/12/05 15:24:14;;;;;;;;;;;;;;;22.69;70.99;96100.55;608579;233;66750;-63
2021/12/05 15:26:42;;;;;;;;;;;;;;;22.70;69.52;96108.30;608674;233;65022;-63
2021/12/05 15:29:10;;;;;;;;;;;;;;;22.71;67.71;96109.87;608538;233;62748;-63
2021/12/05 15:31:42;;;;;;;;;;;;;;;22.72;70.36;96103.41;608659;233;67461;-63
2021/12/05 15:34:20;;;;;;;;;;;;;;;22.71;68.92;96104.52;608662;233;67087;-63
2021/12/05 15:36:48;;;;;;;;;;;;;;;22.71;70.33;96115.22;608622;233;62910;-64
2021/12/05 15:39:21;;;;;;;;;;;;;;;22.72;68.51;96126.72;608639;233;67289;-63
2021/12/05 15:41:47;;;;;;;;;;;;;;;22.73;69.89;96120.29;608504;233;66933;-63
2021/12/05 15:44:31;;;;;;;;;;;;;;;22.71;70.04;96122.47;608665;233;64955;-63
2021/12/05 15:47:17;;;;;;;;;;;;;;;22.70;70.59;96124.36;608648;233;67246;-63
2021/12/05 15:49:45;;;;;;;;;;;;;;;22.71;68.20;96125.15;608575;233;65011;-63
2021/12/05 15:52:13;;;;;;;;;;;;;;;22.69;70.87;96127.33;608569;233;62924;-63
2021/12/05 15:54:42;;;;;;;;;;;;;;;22.68;70.14;96123.87;608594;233;67066;-63
2021/12/05 15:57:16;;;;;;;;;;;;;;;22.68;70.28;96118.52;608694;233;64915;-63
2021/12/05 15:59:45;;;;;;;;;;;;;;;22.68;70.19;96118.52;608527;233;64797;-65
2021/12/05 16:02:14;;;;;;;;;;;;;;;22.69;69.92;96114.73;608670;233;67236;-65
2021/12/05 16:04:42;;;;;;;;;;;;;;;22.71;69.65;96127.83;608591;233;66976;-65
2021/12/05 16:07:10;;;;;;;;;;;;;;;22.70;67.97;96131.59;608599;233;64927;-65
2021/12/05 16:09:39;;;;;;;;;;;;;;;22.72;71.52;96124.83;608636;233;67215;-65
2021/12/05 16:12:07;;;;;;;;;;;;;;;22.73;70.61;96115.72;608692;233;64639;-65
2021/12/05 16:14:36;;;;;;;;;;;;;;;22.72;71.52;96119.47;608538;233;64897;-64
2021/12/05 16:17:14;;;;;;;;;;;;;;;22.73;71.69;96114.94;608574;233;67061;-65
2021/12/05 16:19:43;;;;;;;;;;;;;;;22.73;72.39;96125.64;608599;233;67141;-65
2021/12/05 16:22:10;;;;;;;;;;;;;;;22.74;72.60;96130.69;607783;233;65211;-65
2021/12/05 16:24:40;;;;;;;;;;;;;;;22.73;71.96;96123.75;608652;233;67133;-65
2021/12/05 16:27:07;;;;;;;;;;;;;;;22.74;72.46;96122.65;608630;233;64430;-63
2021/12/05 16:29:36;;;;;;;;;;;;;;;22.75;72.47;96116.22;608647;233;63035;-62
2021/12/05 16:32:04;;;;;;;;;;;;;;;22.74;70.17;96114.61;608617;233;65023;-62
2021/12/05 16:34:33;;;;;;;;;;;;;;;22.76;72.16;96106.28;608639;233;67031;-62
2021/12/05 16:37:02;;;;;;;;;;;;;;;22.76;71.46;96104.39;608591;233;65190;-62
2021/12/05 16:39:31;;;;;;;;;;;;;;;22.77;69.62;96103.28;608686;233;66633;-62
2021/12/05 16:42:00;;;;;;;;;;;;;;;22.80;68.19;96096.53;608594;233;67042;-65
2021/12/05 16:44:30;;;;;;;;;;;;;;;22.80;67.80;96093.85;608391;233;65024;-65
2021/12/05 16:47:02;;;;;;;;;;;;;;;22.82;69.04;96083.63;608635;233;67502;-64
2021/12/05 16:49:31;;;;;;;;;;;;;;;22.81;68.06;96082.06;608469;233;64949;-64
2021/12/05 16:52:01;;;;;;;;;;;;;;;22.83;69.21;96071.81;608525;233;62760;-64
2021/12/05 16:54:32;;;;;;;;;;;;;;;22.83;69.17;96069.95;608184;233;64999;-64
2021/12/05 16:57:10;;;;;;;;;;;;;;;22.86;68.66;96078.45;608627;233;66853;-64
2021/12/05 16:59:39;;;;;;;;;;;;;;;22.87;69.06;96085.41;608585;233;65132;-63
2021/12/05 17:02:27;;;;;;;;;;;;;;;22.87;69.07;96080.05;608569;233;67068;-63
2021/12/05 17:05:07;;;;;;;;;;;;;;;22.88;70.85;96084.30;608616;233;65090;-63
2021/12/05 17:07:40;;;;;;;;;;;;;;;22.88;69.11;96081.63;608545;233;65146;-63
2021/12/05 17:10:09;;;;;;;;;;;;;;;22.88;67.68;96074.37;608002;233;67020;-64
2021/12/05 17:12:37;;;;;;;;;;;;;;;22.91;68.54;96081.01;608590;233;66866;-64
2021/12/05 17:15:13;;;;;;;;;;;;;;;22.91;67.62;96078.33;608414;233;43687;-64
2021/12/05 17:17:44;;;;;;;;;;;;;;;22.92;67.62;96077.25;608615;233;67145;-64
2021/12/05 17:20:19;;;;;;;;;;;;;;;22.95;69.55;96073.95;602736;233;64929;-64
2021/12/05 17:22:57;;;;;;;;;;;;;;;22.96;68.88;96067.52;608670;233;46319;-64
2021/12/05 17:25:27;;;;;;;;;;;;;;;22.96;68.55;96076.34;608582;233;69380;-64
2021/12/05 17:27:57;;;;;;;;;;;;;;;22.97;69.42;96082.48;607824;233;47788;-63
2021/12/05 17:30:27;;;;;;;;;;;;;;;22.97;71.41;96075.27;608542;233;65144;-63
2021/12/05 17:32:58;;;;;;;;;;;;;;;22.99;70.54;96072.26;608597;233;67161;-63
2021/12/05 17:35:29;;;;;;;;;;;;;;;23.00;67.26;96073.86;608499;233;67545;-63
2021/12/05 17:37:58;;;;;;;;;;;;;;;23.02;68.82;96067.07;608681;233;62791;-63
2021/12/05 17:40:26;;;;;;;;;;;;;;;23.03;67.61;96060.63;608633;233;65148;-63
2021/12/05 17:42:53;;;;;;;;;;;;;;;23.06;67.50;96061.13;608641;233;67076;-63
2021/12/05 17:45:21;;;;;;;;;;;;;;;23.07;67.56;96074.20;608643;233;64899;-63
2021/12/05 17:47:48;;;;;;;;;;;;;;;23.09;67.86;96066.65;608670;233;66924;-64
2021/12/05 17:50:20;;;;;;;;;;;;;;;23.11;67.26;96063.64;608629;233;66794;-63
2021/12/05 17:52:49;;;;;;;;;;;;;;;23.13;67.46;96078.33;608700;233;62773;-64
2021/12/05 17:55:30;;;;;;;;;;;;;;;23.15;67.15;96069.98;608656;233;66743;-63
2021/12/05 17:58:02;;;;;;;;;;;;;;;23.16;67.60;96074.24;608360;233;66846;-64
2021/12/05 18:03:10;;;;;;;;;;;;;;;23.19;67.38;96073.63;608675;233;67287;-63
2021/12/05 18:05:39;;;;;;;;;;;;;;;23.19;66.70;96077.12;602156;233;68265;-63
2021/12/05 18:08:09;;;;;;;;;;;;;;;23.21;66.53;96074.11;608506;233;63070;-63
2021/12/05 18:10:40;;;;;;;;;;;;;;;23.23;66.76;96083.43;608451;233;67197;-63